Time;durP1;ratioP1;P1;durP2;ratioP2;P2;SDS_P1;SDS_P2;PMS_P1;PMS_P2;Temp;Humidity;BMP_temperature;BMP_pressure;BME280_temperature;BME280_humidity;BME280_pressure;Samples;Min_cycle;Max_cycle;Signal;HPM_P1;HPM_P2
2020/12/22 00:00:23;;;;;;;11.43;10.23;;;;;;;13.34;53.51;100592.47;5020962;27;97762;-58
2020/12/22 00:02:49;;;;;;;11.85;9.95;;;;;;;13.34;53.76;100590.56;5018461;27;127401;-58
2020/12/22 00:05:15;;;;;;;11.25;10.05;;;;;;;13.35;53.99;100580.53;4985786;27;124251;-57
2020/12/22 00:07:41;;;;;;;11.43;10.18;;;;;;;13.32;53.75;100576.47;4986525;27;98486;-58
2020/12/22 00:10:10;;;;;;;13.30;11.10;;;;;;;13.27;53.59;100579.22;5005354;27;98771;-58
2020/12/22 00:12:39;;;;;;;12.90;10.30;;;;;;;13.31;53.73;100585.69;5021946;27;103155;-58
2020/12/22 00:15:10;;;;;;;11.65;9.95;;;;;;;13.30;53.40;100586.00;5008276;27;98047;-58
2020/12/22 00:17:36;;;;;;;11.52;9.95;;;;;;;13.31;53.72;100574.06;5004945;27;112011;-58
2020/12/22 00:20:04;;;;;;;11.73;9.95;;;;;;;13.33;53.18;100574.59;5005825;27;98718;-57
2020/12/22 00:22:30;;;;;;;11.88;10.52;;;;;;;13.33;53.30;100575.41;5004367;27;97897;-56
2020/12/22 00:24:56;;;;;;;12.30;9.73;;;;;;;13.33;53.34;100580.03;5005172;27;122834;-58
2020/12/22 00:27:22;;;;;;;12.27;9.98;;;;;;;13.31;53.38;100572.16;5024025;27;128254;-58
2020/12/22 00:29:48;;;;;;;11.75;10.00;;;;;;;13.33;53.04;100555.66;5024076;27;127987;-58
2020/12/22 00:32:14;;;;;;;11.82;9.80;;;;;;;13.34;53.05;100555.34;5016898;27;128589;-58
2020/12/22 00:34:40;;;;;;;11.80;10.15;;;;;;;13.33;53.46;100545.63;5012444;27;122920;-58
2020/12/22 00:37:07;;;;;;;11.13;9.93;;;;;;;13.34;53.24;100546.44;5015024;27;117831;-57
2020/12/22 00:39:33;;;;;;;11.57;10.38;;;;;;;13.38;53.20;100531.25;4994940;27;98954;-58
2020/12/22 00:42:02;;;;;;;11.00;9.77;;;;;;;13.33;52.88;100544.81;5013127;27;98187;-57
2020/12/22 00:44:28;;;;;;;10.70;9.60;;;;;;;13.34;53.31;100533.69;4995122;27;121823;-58
2020/12/22 00:46:54;;;;;;;11.35;10.18;;;;;;;13.32;52.88;100527.75;5010467;27;98355;-57
2020/12/22 00:49:21;;;;;;;11.30;9.88;;;;;;;13.32;53.22;100525.03;5010470;27;122659;-59
2020/12/22 00:51:47;;;;;;;11.25;10.00;;;;;;;13.31;53.15;100517.22;5015053;27;105644;-58
2020/12/22 00:54:13;;;;;;;12.57;10.10;;;;;;;13.34;53.38;100522.88;5002171;27;99222;-58
2020/12/22 00:56:39;;;;;;;10.70;9.60;;;;;;;13.34;53.18;100519.38;5003221;27;128222;-59
2020/12/22 00:59:05;;;;;;;12.30;10.60;;;;;;;13.35;52.65;100519.06;5003251;27;99187;-58
2020/12/22 01:01:31;;;;;;;10.68;9.57;;;;;;;13.36;53.23;100507.16;5014414;27;109711;-58
2020/12/22 01:03:58;;;;;;;10.95;9.77;;;;;;;13.34;53.05;100506.63;5024758;27;97947;-58
2020/12/22 01:06:24;;;;;;;11.18;9.85;;;;;;;13.33;53.40;100515.06;5023681;27;116900;-57
2020/12/22 01:08:50;;;;;;;10.45;9.35;;;;;;;13.34;53.13;100506.63;5024456;27;99531;-58
2020/12/22 01:11:17;;;;;;;10.68;9.55;;;;;;;13.31;53.17;100498.28;5021593;27;127671;-58
2020/12/22 01:13:43;;;;;;;11.30;10.05;;;;;;;13.33;53.39;100496.09;5023201;27;97613;-57
2020/12/22 01:16:09;;;;;;;11.55;10.10;;;;;;;13.29;53.35;100497.75;5022795;27;121210;-58
2020/12/22 01:18:35;;;;;;;11.20;10.00;;;;;;;13.32;53.19;100497.16;5024465;27;99551;-58
2020/12/22 01:21:01;;;;;;;10.88;9.52;;;;;;;13.33;53.72;100488.78;5018628;27;127677;-58
2020/12/22 01:23:27;;;;;;;11.27;9.65;;;;;;;13.33;53.83;100490.69;5003560;27;112146;-58
2020/12/22 01:25:53;;;;;;;11.18;10.00;;;;;;;13.33;53.91;100477.16;5003081;27;127905;-58
2020/12/22 01:28:20;;;;;;;11.63;9.70;;;;;;;13.33;53.81;100474.44;5003378;27;127518;-59
2020/12/22 01:30:46;;;;;;;10.90;9.25;;;;;;;13.35;54.08;100462.22;5002850;27;126650;-57
2020/12/22 01:33:12;;;;;;;10.50;9.40;;;;;;;13.36;54.24;100457.59;5004544;27;97756;-58
2020/12/22 01:35:38;;;;;;;12.40;9.95;;;;;;;13.29;53.86;100463.38;5008278;27;97765;-59
2020/12/22 01:38:04;;;;;;;10.60;9.50;;;;;;;13.32;54.16;100451.94;5023178;27;126810;-58
2020/12/22 01:40:30;;;;;;;10.48;9.40;;;;;;;13.30;54.00;100450.63;5023278;27;98470;-58
2020/12/22 01:42:56;;;;;;;10.60;9.05;;;;;;;13.30;54.20;100462.28;5023095;27;123170;-58
2020/12/22 01:45:22;;;;;;;10.35;9.25;;;;;;;13.30;54.15;100462.28;5012454;27;127726;-58
2020/12/22 01:47:49;;;;;;;11.32;9.98;;;;;;;13.30;54.21;100467.69;5002693;27;127867;-58
2020/12/22 01:50:17;;;;;;;11.32;10.13;;;;;;;13.28;53.63;100450.91;5000036;27;97890;-58
2020/12/22 01:52:44;;;;;;;11.18;9.68;;;;;;;13.25;53.70;100440.69;5024071;27;97675;-58
2020/12/22 01:55:10;;;;;;;11.10;9.90;;;;;;;13.24;53.56;100423.63;5023413;27;98563;-58
2020/12/22 01:57:36;;;;;;;10.65;9.55;;;;;;;13.27;53.61;100412.22;5008640;27;127020;-58
2020/12/22 02:00:06;;;;;;;11.40;10.20;;;;;;;13.23;53.13;100413.88;5003551;27;107816;-58
2020/12/22 02:02:33;;;;;;;11.10;9.90;;;;;;;13.22;53.08;100420.34;5002624;27;122905;-58
2020/12/22 02:05:00;;;;;;;11.07;9.88;;;;;;;13.22;53.46;100417.66;4955965;27;98282;-58
2020/12/22 02:07:26;;;;;;;11.25;10.00;;;;;;;13.25;53.31;100414.41;5023604;27;98467;-58
2020/12/22 02:09:52;;;;;;;12.18;9.90;;;;;;;13.26;53.78;100409.81;4970705;27;98098;-58
2020/12/22 02:12:19;;;;;;;10.68;9.57;;;;;;;13.24;53.54;100415.50;5020932;27;123624;-58
2020/12/22 02:14:45;;;;;;;10.57;9.48;;;;;;;13.26;53.49;100415.22;5003856;27;99098;-58
2020/12/22 02:17:11;;;;;;;11.02;9.75;;;;;;;13.27;53.69;100420.34;5022613;27;112788;-57
2020/12/22 02:19:37;;;;;;;11.80;9.65;;;;;;;13.31;53.82;100414.34;5004981;27;97960;-58
2020/12/22 02:22:06;;;;;;;10.25;9.25;;;;;;;13.30;54.11;100410.03;5023204;27;99857;-58
2020/12/22 02:24:33;;;;;;;9.85;8.80;;;;;;;13.33;54.18;100412.19;5020856;27;107828;-58
2020/12/22 02:27:02;;;;;;;10.52;9.43;;;;;;;13.32;53.91;100416.75;5022263;27;115971;-58
2020/12/22 02:29:28;;;;;;;10.20;9.10;;;;;;;13.32;53.85;100416.75;4975855;27;100074;-57
2020/12/22 02:31:54;;;;;;;9.85;8.85;;;;;;;13.30;54.13;100413.53;4984528;27;97874;-58
2020/12/22 02:34:20;;;;;;;10.02;8.98;;;;;;;13.33;54.22;100407.56;5002979;27;127009;-58
2020/12/22 02:36:46;;;;;;;10.13;8.82;;;;;;;13.30;54.50;100394.59;5017309;27;127668;-58
2020/12/22 02:39:13;;;;;;;10.40;9.15;;;;;;;13.27;54.57;100387.03;5021961;27;127278;-58
2020/12/22 02:41:39;;;;;;;10.02;8.55;;;;;;;13.29;54.50;100382.16;4989673;27;123154;-58
2020/12/22 02:44:05;;;;;;;10.45;9.20;;;;;;;13.26;54.46;100388.94;5002181;27;123122;-58
2020/12/22 02:46:31;;;;;;;9.75;8.73;;;;;;;13.30;54.93;100381.06;5001909;27;127785;-57
2020/12/22 02:48:57;;;;;;;9.98;8.77;;;;;;;13.27;54.96;100378.94;5001589;27;119782;-57
2020/12/22 02:51:23;;;;;;;9.77;8.73;;;;;;;13.27;55.11;100368.91;5001861;27;123277;-58
2020/12/22 02:53:49;;;;;;;9.88;8.40;;;;;;;13.29;55.28;100370.53;5000699;27;126281;-58
2020/12/22 02:56:15;;;;;;;9.45;8.48;;;;;;;13.27;55.37;100376.22;5002630;27;99248;-58
2020/12/22 02:58:41;;;;;;;10.48;8.63;;;;;;;13.25;55.38;100376.53;5005705;27;104997;-58
2020/12/22 03:01:07;;;;;;;9.18;8.15;;;;;;;13.27;55.52;100370.81;5021977;27;122775;-58
2020/12/22 03:03:33;;;;;;;10.02;8.25;;;;;;;13.20;55.44;100360.31;5022005;27;120916;-58
2020/12/22 03:05:59;;;;;;;9.90;8.88;;;;;;;13.21;55.68;100355.69;5021691;27;128142;-58
2020/12/22 03:08:25;;;;;;;9.35;8.15;;;;;;;13.20;56.22;100349.47;5001263;27;125710;-57
2020/12/22 03:10:51;;;;;;;9.30;8.20;;;;;;;13.21;55.93;100336.75;5004607;27;97842;-58
2020/12/22 03:13:17;;;;;;;8.95;8.02;;;;;;;13.23;55.73;100340.00;5001497;27;127324;-57
2020/12/22 03:15:43;;;;;;;8.68;7.80;;;;;;;13.22;56.02;100324.81;5011828;27;128106;-58
2020/12/22 03:18:09;;;;;;;8.35;7.55;;;;;;;13.20;56.20;100317.00;5000813;27;126444;-58
2020/12/22 03:20:35;;;;;;;8.75;7.85;;;;;;;13.22;56.08;100314.81;5001343;27;121771;-57
2020/12/22 03:23:01;;;;;;;8.07;7.28;;;;;;;13.22;56.40;100314.81;5001169;27;125876;-58
2020/12/22 03:25:27;;;;;;;9.38;7.93;;;;;;;13.20;56.37;100314.31;5001239;27;128598;-57
2020/12/22 03:27:53;;;;;;;8.73;7.50;;;;;;;13.20;56.55;100308.88;5001049;27;127951;-58
2020/12/22 03:30:19;;;;;;;9.70;7.63;;;;;;;13.19;56.62;100309.97;5002078;27;122143;-58
2020/12/22 03:32:45;;;;;;;8.55;7.50;;;;;;;13.19;56.67;100304.53;4983107;27;107232;-58
2020/12/22 03:35:11;;;;;;;8.40;7.47;;;;;;;13.20;56.48;100286.41;5000992;27;128745;-58
2020/12/22 03:37:38;;;;;;;8.77;7.88;;;;;;;13.20;56.80;100287.22;5011600;27;98586;-58
2020/12/22 03:40:06;;;;;;;8.25;7.10;;;;;;;13.19;56.81;100291.00;5002126;27;99008;-58
2020/12/22 03:42:32;;;;;;;8.02;7.22;;;;;;;13.20;56.69;100284.53;4983075;27;99022;-58
2020/12/22 03:44:58;;;;;;;7.97;7.00;;;;;;;13.22;56.85;100285.03;5006435;27;122747;-58
2020/12/22 03:47:24;;;;;;;8.50;7.40;;;;;;;13.22;56.82;100281.53;5020584;27;126815;-57
2020/12/22 03:49:50;;;;;;;8.20;7.32;;;;;;;13.25;56.79;100279.06;5017852;27;98038;-58
2020/12/22 03:52:16;;;;;;;8.38;7.18;;;;;;;13.21;56.86;100271.78;4982503;27;122590;-58
2020/12/22 03:54:42;;;;;;;7.88;7.07;;;;;;;13.22;57.03;100268.78;5000557;27;127844;-58
2020/12/22 03:57:09;;;;;;;7.43;6.57;;;;;;;13.24;57.19;100268.53;5001235;27;127323;-58
2020/12/22 03:59:35;;;;;;;7.40;6.60;;;;;;;13.26;57.28;100271.75;5012314;27;97852;-58
2020/12/22 04:02:02;;;;;;;7.38;6.55;;;;;;;13.27;57.31;100273.38;5021245;27;98423;-58
2020/12/22 04:04:28;;;;;;;8.30;6.65;;;;;;;13.27;57.48;100263.34;4996053;27;98723;-57
2020/12/22 04:06:54;;;;;;;7.47;6.60;;;;;;;13.28;57.43;100274.97;4999547;27;127497;-57
2020/12/22 04:09:20;;;;;;;7.40;6.57;;;;;;;13.30;57.40;100264.66;5000421;27;121951;-58
2020/12/22 04:11:47;;;;;;;7.05;6.35;;;;;;;13.32;57.42;100259.75;5008115;27;118257;-58
2020/12/22 04:14:13;;;;;;;8.02;6.32;;;;;;;13.32;57.86;100262.47;5021664;27;98386;-58
2020/12/22 04:16:40;;;;;;;7.03;6.25;;;;;;;13.32;57.85;100262.47;5016547;27;104034;-58
2020/12/22 04:19:06;;;;;;;6.45;5.82;;;;;;;13.36;58.08;100259.97;4997913;27;107226;-58
2020/12/22 04:21:32;;;;;;;7.10;6.13;;;;;;;13.34;57.78;100240.53;5000373;27;127332;-58
2020/12/22 04:23:59;;;;;;;6.50;5.75;;;;;;;13.37;57.88;100239.97;5015843;27;99175;-58
2020/12/22 04:26:25;;;;;;;5.93;5.32;;;;;;;13.35;58.23;100234.81;5020753;27;127497;-58
2020/12/22 04:28:51;;;;;;;6.13;5.53;;;;;;;13.37;57.79;100245.38;5019363;27;104234;-57
2020/12/22 04:31:21;;;;;;;6.00;5.38;;;;;;;13.41;57.74;100244.50;5005119;27;115458;-59
2020/12/22 04:33:48;;;;;;;6.00;5.40;;;;;;;13.40;57.86;100233.94;4999317;27;98646;-58
2020/12/22 04:36:14;;;;;;;5.80;4.88;;;;;;;13.40;57.90;100228.53;5000581;27;97734;-58
2020/12/22 04:38:40;;;;;;;5.30;4.80;;;;;;;13.38;58.21;100236.94;5001895;27;97797;-58
2020/12/22 04:41:06;;;;;;;5.53;4.97;;;;;;;13.38;57.96;100223.41;5000042;27;127358;-58
2020/12/22 04:43:33;;;;;;;5.82;5.22;;;;;;;13.37;58.17;100235.34;4991076;27;127384;-58
2020/12/22 04:46:03;;;;;;;5.43;4.82;;;;;;;13.39;58.00;100227.72;5005982;27;114856;-58
2020/12/22 04:48:39;;;;;;;5.07;4.55;;;;;;;13.39;58.18;100241.25;5023227;27;97775;-58
2020/12/22 04:51:07;;;;;;;5.13;4.35;;;;;;;13.38;58.20;100234.25;5018548;27;98240;-58
2020/12/22 04:53:33;;;;;;;4.85;4.35;;;;;;;13.39;58.23;100246.66;5005105;27;98301;-57
2020/12/22 04:56:04;;;;;;;4.75;4.20;;;;;;;13.36;58.44;100239.16;5003362;27;111999;-58
2020/12/22 04:58:30;;;;;;;4.32;3.92;;;;;;;13.39;58.75;100240.47;5004420;27;97865;-58
2020/12/22 05:00:57;;;;;;;4.22;3.83;;;;;;;13.41;58.23;100238.28;5010910;27;127196;-57
2020/12/22 05:03:23;;;;;;;5.03;3.88;;;;;;;13.40;58.41;100233.94;5024428;27;98952;-58
2020/12/22 05:05:49;;;;;;;5.15;3.90;;;;;;;13.40;58.50;100232.06;5021326;27;107090;-58
2020/12/22 05:08:16;;;;;;;4.32;3.72;;;;;;;13.40;58.55;100223.94;5020613;27;97869;-58
2020/12/22 05:10:43;;;;;;;4.55;3.40;;;;;;;13.44;58.39;100213.31;5003043;27;114130;-57
2020/12/22 05:13:12;;;;;;;3.85;3.30;;;;;;;13.39;58.71;100211.47;5016898;27;98367;-58
2020/12/22 05:15:49;;;;;;;4.40;3.40;;;;;;;13.37;58.44;100202.84;5003607;27;114251;-58
2020/12/22 05:18:15;;;;;;;3.63;3.33;;;;;;;13.39;58.35;100197.94;5004404;27;97698;-59
2020/12/22 05:20:42;;;;;;;4.55;3.22;;;;;;;13.37;58.35;100188.53;5014815;27;114958;-57
2020/12/22 05:23:14;;;;;;;4.32;3.05;;;;;;;13.38;58.52;100184.72;5024212;27;98992;-58
2020/12/22 05:25:41;;;;;;;3.67;2.70;;;;;;;13.40;58.76;100182.50;5014577;27;98421;-58
2020/12/22 05:28:08;;;;;;;3.00;2.55;;;;;;;13.39;58.82;100181.69;5003008;27;112487;-58
2020/12/22 05:30:37;;;;;;;3.42;2.55;;;;;;;13.38;58.76;100188.22;5003781;27;98815;-58
2020/12/22 05:33:04;;;;;;;3.13;2.83;;;;;;;13.43;58.73;100187.34;5009729;27;99328;-58
2020/12/22 05:35:37;;;;;;;2.88;2.45;;;;;;;13.46;58.77;100175.94;5023402;27;98681;-57
2020/12/22 05:38:06;;;;;;;4.45;3.38;;;;;;;13.50;58.54;100160.72;5024582;27;99828;-58
2020/12/22 05:40:39;;;;;;;4.15;3.20;;;;;;;13.51;58.50;100165.00;5020764;27;126568;-58
2020/12/22 05:43:05;;;;;;;3.85;3.13;;;;;;;13.59;58.34;100166.25;5004339;27;111616;-58
2020/12/22 05:45:35;;;;;;;4.00;3.13;;;;;;;13.55;58.69;100160.63;5005291;27;98058;-58
2020/12/22 05:48:01;;;;;;;4.05;3.03;;;;;;;13.58;58.52;100154.63;5010750;27;114420;-57
2020/12/22 05:50:27;;;;;;;3.38;2.97;;;;;;;13.60;58.51;100159.75;5023826;27;99337;-58
2020/12/22 05:52:55;;;;;;;3.95;3.00;;;;;;;13.62;58.61;100154.84;5023690;27;98927;-57
2020/12/22 05:55:31;;;;;;;5.13;3.22;;;;;;;13.58;58.64;100156.53;5023556;27;98445;-58
2020/12/22 05:58:14;;;;;;;3.53;2.67;;;;;;;13.60;58.57;100141.59;5023684;27;111306;-58
2020/12/22 06:00:44;;;;;;;3.58;2.70;;;;;;;13.61;58.86;100135.09;5012145;27;98815;-59
2020/12/22 06:03:14;;;;;;;3.00;2.50;;;;;;;13.63;58.94;100135.56;5004370;27;112284;-58
2020/12/22 06:05:47;;;;;;;3.13;2.83;;;;;;;13.62;58.72;100128.56;5012033;27;98351;-58
2020/12/22 06:08:15;;;;;;;3.92;2.70;;;;;;;13.64;58.79;100133.69;5023398;27;97902;-58
2020/12/22 06:10:42;;;;;;;3.33;2.22;;;;;;;13.66;58.69;100134.19;5022488;27;98678;-58
2020/12/22 06:13:09;;;;;;;2.60;2.20;;;;;;;13.64;58.73;100123.66;5022949;27;99105;-58
2020/12/22 06:15:35;;;;;;;2.85;2.40;;;;;;;13.62;58.71;100116.94;5023467;27;98528;-58
2020/12/22 06:18:02;;;;;;;2.58;2.10;;;;;;;13.65;58.91;100113.63;5015006;27;97755;-58
2020/12/22 06:20:29;;;;;;;2.25;1.90;;;;;;;13.68;58.81;100115.75;5007502;27;98724;-58
2020/12/22 06:23:05;;;;;;;2.05;1.77;;;;;;;13.68;59.06;100104.91;5023228;27;98991;-58
2020/12/22 06:25:35;;;;;;;2.30;1.80;;;;;;;13.68;59.11;100113.03;5023153;27;98125;-58
2020/12/22 06:28:01;;;;;;;2.85;2.10;;;;;;;13.68;59.15;100107.63;5023795;27;97839;-58
2020/12/22 06:30:35;;;;;;;2.58;1.67;;;;;;;13.69;59.23;100107.31;5022302;27;127703;-58
2020/12/22 06:33:19;;;;;;;2.40;1.90;;;;;;;13.70;59.17;100113.53;5020025;27;98284;-58
2020/12/22 06:36:02;;;;;;;2.13;1.73;;;;;;;13.72;59.10;100116.78;5001924;27;98335;-58
2020/12/22 06:38:59;;;;;;;2.17;1.60;;;;;;;13.70;59.21;100118.94;5003279;27;97776;-58
2020/12/22 06:41:34;;;;;;;1.88;1.25;;;;;;;13.72;59.61;100116.78;5003040;27;98423;-58
2020/12/22 06:44:14;;;;;;;2.45;1.30;;;;;;;13.75;59.30;100116.97;5003212;27;98726;-58
2020/12/22 06:46:42;;;;;;;2.15;1.25;;;;;;;13.79;59.63;100124.50;5002648;27;98360;-58
2020/12/22 06:49:09;;;;;;;2.35;1.10;;;;;;;13.78;59.31;100117.47;5002450;27;97788;-58
2020/12/22 06:51:37;;;;;;;1.77;1.20;;;;;;;13.82;59.57;100116.56;5002713;27;99077;-58
2020/12/22 06:54:05;;;;;;;1.95;1.20;;;;;;;13.81;59.50;100108.75;4983818;27;100786;-58
2020/12/22 06:56:50;;;;;;;2.75;1.33;;;;;;;13.79;59.36;100106.34;5002088;27;97904;-57
2020/12/22 06:59:40;;;;;;;1.80;1.50;;;;;;;13.77;59.56;100108.56;5002236;27;97876;-58
2020/12/22 07:02:36;;;;;;;1.92;1.25;;;;;;;13.79;59.61;100119.88;5002164;27;98346;-58
2020/12/22 07:05:05;;;;;;;2.63;1.42;;;;;;;13.83;59.63;100120.09;5016345;27;99058;-58
2020/12/22 07:07:57;;;;;;;2.03;1.20;;;;;;;13.81;59.74;100111.47;5022809;27;98314;-58
2020/12/22 07:10:26;;;;;;;2.03;1.20;;;;;;;13.83;60.11;100118.19;5022446;27;97858;-58
2020/12/22 07:12:53;;;;;;;1.52;1.15;;;;;;;13.84;60.03;100116.31;5019524;27;119884;-58
2020/12/22 07:15:19;;;;;;;1.77;1.10;;;;;;;13.87;59.95;100110.25;5003651;27;119885;-58
2020/12/22 07:17:45;;;;;;;1.90;1.00;;;;;;;13.89;60.35;100110.78;5019104;27;109140;-58
2020/12/22 07:20:11;;;;;;;1.38;0.90;;;;;;;13.90;59.97;100112.38;5023026;27;97911;-58
2020/12/22 07:22:37;;;;;;;1.38;0.90;;;;;;;13.91;60.11;100109.41;5015725;27;98814;-58
2020/12/22 07:25:07;;;;;;;3.10;1.02;;;;;;;13.93;60.09;100107.19;5019137;27;128541;-58
2020/12/22 07:27:36;;;;;;;1.83;1.00;;;;;;;13.95;59.89;100104.16;5017048;27;113835;-58
2020/12/22 07:30:02;;;;;;;1.90;0.88;;;;;;;13.98;60.40;100117.91;4999663;27;123676;-58
2020/12/22 07:32:28;;;;;;;1.45;1.00;;;;;;;13.99;60.35;100110.63;5011012;27;114010;-58
2020/12/22 07:34:54;;;;;;;1.30;0.90;;;;;;;14.00;60.23;100104.09;5018271;27;128074;-58
2020/12/22 07:37:20;;;;;;;1.20;0.80;;;;;;;14.00;60.27;100107.59;5019323;27;108110;-58
2020/12/22 07:39:46;;;;;;;2.00;0.90;;;;;;;14.04;60.14;100105.09;5019932;27;97955;-59
2020/12/22 07:42:17;;;;;;;1.77;0.70;;;;;;;14.05;60.65;100097.78;5018755;27;123271;-59
2020/12/22 07:44:45;;;;;;;1.50;0.80;;;;;;;14.06;60.27;100097.47;5019964;27;98474;-59
2020/12/22 07:47:12;;;;;;;1.50;1.15;;;;;;;14.09;60.15;100102.28;5019215;27;98265;-58
2020/12/22 07:49:39;;;;;;;2.10;1.55;;;;;;;14.12;60.49;100106.31;4982861;27;97833;-59
2020/12/22 07:52:05;;;;;;;2.05;1.60;;;;;;;14.15;60.24;100100.31;5007384;27;99047;-59
2020/12/22 07:54:31;;;;;;;2.10;1.40;;;;;;;14.15;60.81;100097.59;5011313;27;99149;-59
2020/12/22 07:56:58;;;;;;;1.70;1.30;;;;;;;14.15;60.82;100098.41;5007163;27;98384;-59
2020/12/22 07:59:24;;;;;;;2.40;1.85;;;;;;;14.17;60.59;100104.31;5019359;27;97730;-58
2020/12/22 08:01:51;;;;;;;1.50;1.10;;;;;;;14.22;60.62;100089.84;4983792;27;98805;-59
2020/12/22 08:04:22;;;;;;;2.50;1.70;;;;;;;14.24;60.76;100095.78;4999565;27;98581;-58
2020/12/22 08:07:07;;;;;;;2.03;1.55;;;;;;;14.24;61.14;100099.28;5018877;27;97988;-58
2020/12/22 08:09:35;;;;;;;2.65;1.52;;;;;;;14.27;60.86;100097.91;5007285;27;97818;-58
2020/12/22 08:12:04;;;;;;;2.20;1.45;;;;;;;14.24;61.46;100102.00;5011469;27;102639;-58
2020/12/22 08:14:32;;;;;;;2.75;1.60;;;;;;;14.27;61.22;100099.81;5019457;27;98600;-58
2020/12/22 08:17:02;;;;;;;2.13;1.25;;;;;;;14.30;61.39;100104.59;5013914;27;98397;-58
2020/12/22 08:19:34;;;;;;;1.90;1.20;;;;;;;14.32;61.22;100113.25;4965251;27;98193;-58
2020/12/22 08:22:01;;;;;;;1.30;0.90;;;;;;;14.38;61.13;100101.19;4980410;27;108854;-58
2020/12/22 08:24:30;;;;;;;1.70;1.20;;;;;;;14.39;61.41;100100.91;4999515;27;98016;-58
2020/12/22 08:26:56;;;;;;;1.52;0.90;;;;;;;14.43;61.85;100103.81;4983546;27;110696;-58
2020/12/22 08:29:23;;;;;;;1.35;0.77;;;;;;;14.47;61.78;100108.34;5019970;27;98209;-58
2020/12/22 08:31:50;;;;;;;1.80;1.00;;;;;;;14.55;61.54;100109.56;5013372;27;108510;-58
2020/12/22 08:34:17;;;;;;;1.48;0.90;;;;;;;14.60;61.55;100105.94;5000189;27;109004;-59
2020/12/22 08:36:44;;;;;;;1.92;0.73;;;;;;;14.65;61.55;100095.00;5022590;27;98275;-59
2020/12/22 08:39:18;;;;;;;2.08;0.88;;;;;;;14.73;61.76;100102.41;5023117;27;97779;-58
2020/12/22 08:41:55;;;;;;;2.30;0.60;;;;;;;14.78;61.53;100106.94;5021797;27;98782;-58
2020/12/22 08:44:23;;;;;;;1.15;0.40;;;;;;;14.87;61.86;100099.69;5010652;27;98058;-58
2020/12/22 08:46:49;;;;;;;1.10;0.50;;;;;;;14.94;61.88;100095.47;5001791;27;98445;-58
2020/12/22 08:49:20;;;;;;;1.75;0.70;;;;;;;15.05;61.54;100108.78;5001800;27;111287;-58
2020/12/22 08:51:47;;;;;;;1.10;0.57;;;;;;;15.10;61.46;100106.78;5002064;27;98677;-58
2020/12/22 08:54:13;;;;;;;1.08;0.40;;;;;;;15.13;61.89;100111.59;5001247;27;119195;-58
2020/12/22 08:56:39;;;;;;;0.95;0.50;;;;;;;15.13;62.14;100113.47;5002196;27;98278;-57
2020/12/22 08:59:07;;;;;;;1.70;0.50;;;;;;;15.11;62.34;100113.00;5003245;27;98081;-58
2020/12/22 09:01:47;;;;;;;1.20;0.40;;;;;;;15.06;62.59;100097.63;5001091;27;98475;-57
2020/12/22 09:04:14;;;;;;;0.90;0.40;;;;;;;15.06;63.07;100104.97;5021868;27;98522;-58
2020/12/22 09:06:44;;;;;;;1.30;0.30;;;;;;;15.05;63.30;100101.47;5021710;27;115335;-58
2020/12/22 09:09:24;;;;;;;1.23;0.32;;;;;;;14.99;63.11;100102.69;5020199;27;98006;-58
2020/12/22 09:12:00;;;;;;;0.85;0.30;;;;;;;15.01;63.23;100100.44;5016938;27;97897;-57
2020/12/22 09:14:26;;;;;;;0.70;0.30;;;;;;;15.03;63.32;100100.97;5002464;27;116278;-58
2020/12/22 09:16:55;;;;;;;0.80;0.30;;;;;;;15.06;63.68;100089.50;4964981;27;127956;-58
2020/12/22 09:19:41;;;;;;;0.80;0.38;;;;;;;15.11;63.51;100083.94;5002435;27;97781;-58
2020/12/22 09:22:07;;;;;;;1.27;0.30;;;;;;;15.14;63.18;100088.75;5001959;27;98505;-58
2020/12/22 09:24:33;;;;;;;0.85;0.30;;;;;;;15.21;63.20;100096.50;5001336;27;118189;-58
2020/12/22 09:27:11;;;;;;;0.75;0.20;;;;;;;15.22;63.31;100103.53;5000065;27;98046;-58
2020/12/22 09:29:39;;;;;;;0.70;0.30;;;;;;;15.29;63.15;100098.47;4984072;27;97871;-58
2020/12/22 09:32:07;;;;;;;0.57;0.20;;;;;;;15.42;63.15;100096.81;5001836;27;98087;-58
2020/12/22 09:34:34;;;;;;;0.80;0.30;;;;;;;15.47;62.88;100099.41;5001389;27;98783;-58
2020/12/22 09:37:03;;;;;;;0.80;0.30;;;;;;;15.47;62.97;100092.03;5004208;27;98237;-58
2020/12/22 09:39:29;;;;;;;0.88;0.30;;;;;;;15.53;62.94;100097.38;5000036;27;97911;-59
2020/12/22 09:41:55;;;;;;;0.75;0.30;;;;;;;15.51;63.36;100094.94;5019635;27;126714;-58
2020/12/22 09:44:22;;;;;;;0.65;0.30;;;;;;;15.54;63.04;100096.25;5019152;27;109125;-58
2020/12/22 09:46:53;;;;;;;0.82;0.20;;;;;;;15.55;63.49;100085.06;5013961;27;98587;-58
2020/12/22 09:49:19;;;;;;;0.75;0.20;;;;;;;15.61;63.45;100083.03;5001812;27;97723;-58
2020/12/22 09:51:45;;;;;;;0.50;0.20;;;;;;;15.67;63.67;100082.63;5002033;27;109034;-58
2020/12/22 09:54:11;;;;;;;0.52;0.20;;;;;;;15.73;63.11;100087.94;4999279;27;100664;-58
2020/12/22 09:56:38;;;;;;;0.68;0.20;;;;;;;15.88;62.93;100085.63;5000336;27;113748;-58
2020/12/22 09:59:04;;;;;;;0.43;0.10;;;;;;;16.11;62.37;100091.00;5000329;27;112361;-58
2020/12/22 10:01:30;;;;;;;0.65;0.10;;;;;;;16.42;61.78;100096.41;5001823;27;98679;-58
2020/12/22 10:03:56;;;;;;;0.30;0.10;;;;;;;16.66;61.07;100088.66;5001640;27;98526;-58
2020/12/22 10:06:24;;;;;;;0.65;0.10;;;;;;;16.66;61.85;100093.28;4999165;27;114775;-58
2020/12/22 10:08:51;;;;;;;0.77;0.10;;;;;;;16.61;62.24;100088.78;5019360;27;97872;-57
2020/12/22 10:11:18;;;;;;;0.30;0.08;;;;;;;16.52;62.44;100092.63;5021645;27;98481;-58
2020/12/22 10:13:44;;;;;;;0.40;0.10;;;;;;;16.51;62.61;100094.53;5020916;27;98789;-58
2020/12/22 10:16:18;;;;;;;0.35;0.10;;;;;;;16.74;62.62;100084.38;5020977;27;105547;-58
2020/12/22 10:18:44;;;;;;;0.20;0.10;;;;;;;16.92;62.32;100085.19;5019493;27;97973;-58
2020/12/22 10:21:20;;;;;;;0.40;0.10;;;;;;;17.11;62.09;100095.78;5006906;27;99239;-57
2020/12/22 10:23:49;;;;;;;0.43;0.10;;;;;;;17.15;61.87;100085.84;5018748;27;99059;-58
2020/12/22 10:26:20;;;;;;;0.35;0.10;;;;;;;17.10;62.46;100092.25;5020700;27;97798;-58
2020/12/22 10:28:47;;;;;;;0.50;0.10;;;;;;;17.00;62.82;100086.31;5021032;27;98045;-59
2020/12/22 10:31:15;;;;;;;0.50;0.10;;;;;;;16.95;63.41;100086.50;5020907;27;99871;-58
2020/12/22 10:33:41;;;;;;;0.20;0.10;;;;;;;17.07;63.08;100090.16;5020946;27;98673;-58
2020/12/22 10:36:11;;;;;;;0.45;0.10;;;;;;;17.15;62.97;100103.00;5018743;27;103520;-58
2020/12/22 10:38:37;;;;;;;0.60;0.10;;;;;;;17.16;63.06;100090.16;5021662;27;97807;-59
2020/12/22 10:41:03;;;;;;;0.50;0.10;;;;;;;17.17;63.25;100097.22;5017825;27;101455;-58
2020/12/22 10:43:29;;;;;;;0.55;0.10;;;;;;;17.11;63.32;100098.50;5019909;27;126727;-58
2020/12/22 10:45:57;;;;;;;0.73;0.10;;;;;;;17.12;63.48;100102.81;5006292;27;128382;-58
2020/12/22 10:48:24;;;;;;;0.47;0.10;;;;;;;17.22;63.51;100101.72;4999846;27;101893;-58
2020/12/22 10:50:50;;;;;;;0.20;0.03;;;;;;;17.22;63.47;100104.44;5010764;27;99014;-58
2020/12/22 10:53:16;;;;;;;0.20;0.05;;;;;;;17.29;63.25;100099.28;5020698;27;105017;-58
2020/12/22 10:55:42;;;;;;;0.25;0.10;;;;;;;17.34;63.35;100104.59;5018421;27;98255;-58
2020/12/22 10:58:08;;;;;;;0.20;0.03;;;;;;;17.34;63.79;100107.31;5019841;27;121556;-58
2020/12/22 11:00:35;;;;;;;0.40;0.05;;;;;;;17.28;63.66;100101.22;5020816;27;98385;-58
2020/12/22 11:03:05;;;;;;;0.30;0.05;;;;;;;17.28;63.96;100106.66;5019803;27;98844;-58
2020/12/22 11:08:17;;;;;;;0.10;0.00;;;;;;;17.26;63.82;100100.75;5006921;27;97849;-58
2020/12/22 11:10:43;;;;;;;0.17;0.00;;;;;;;17.25;63.88;100110.06;5009449;27;98470;-60
2020/12/22 11:13:09;;;;;;;0.60;0.00;;;;;;;17.34;63.64;100101.88;5005838;27;127164;-58
2020/12/22 11:15:35;;;;;;;0.00;0.00;;;;;;;17.40;63.58;100114.19;5007804;27;126762;-58
2020/12/22 11:18:01;;;;;;;0.25;0.00;;;;;;;17.40;63.58;100115.00;5006986;27;122880;-58
2020/12/22 11:20:27;;;;;;;0.10;0.00;;;;;;;17.40;63.22;100115.00;5008259;27;125358;-58
2020/12/22 11:22:53;;;;;;;0.25;0.00;;;;;;;17.54;63.43;100125.75;5009881;27;127308;-58
2020/12/22 11:25:19;;;;;;;0.30;0.03;;;;;;;17.67;63.01;100115.78;5008843;27;126767;-59